createdAt,value
2022-12-15T00:02:19.900Z,-1.90
2022-12-15T00:05:06.722Z,-1.90
2022-12-15T00:07:53.193Z,-1.90
2022-12-15T00:10:39.461Z,-1.80
2022-12-15T00:13:32.641Z,-1.80
2022-12-15T00:16:18.321Z,-1.80
2022-12-15T00:19:04.277Z,-1.80
2022-12-15T00:21:50.713Z,-1.80
2022-12-15T00:24:36.330Z,-1.90
2022-12-15T00:27:21.837Z,-1.90
2022-12-15T00:30:07.447Z,-1.90
2022-12-15T00:32:52.995Z,-1.90
2022-12-15T00:35:38.530Z,-1.90
2022-12-15T00:38:33.801Z,-1.80
2022-12-15T00:41:01.440Z,-1.80
2022-12-15T00:43:30.404Z,-1.90
2022-12-15T00:46:16.787Z,-1.90
2022-12-15T00:48:44.066Z,-2.00
2022-12-15T00:51:11.787Z,-2.00
2022-12-15T00:53:57.282Z,-2.00
2022-12-15T00:56:43.415Z,-2.00
2022-12-15T00:59:30.674Z,-2.00
2022-12-15T01:02:16.004Z,-2.00
2022-12-15T01:05:01.789Z,-2.10
2022-12-15T01:07:49.433Z,-2.20
2022-12-15T01:10:36.468Z,-2.20
2022-12-15T01:13:23.144Z,-2.30
2022-12-15T01:19:50.590Z,-2.40
2022-12-15T01:22:17.380Z,-2.40
2022-12-15T01:24:44.694Z,-2.40
2022-12-15T01:27:11.494Z,-2.30
2022-12-15T01:29:38.633Z,-2.30
2022-12-15T01:32:05.816Z,-2.40
2022-12-15T01:34:32.623Z,-2.40
2022-12-15T01:36:59.467Z,-2.40
2022-12-15T01:39:46.301Z,-2.40
2022-12-15T01:42:13.779Z,-2.40
2022-12-15T01:44:40.606Z,-2.40
2022-12-15T01:47:12.261Z,-2.30
2022-12-15T01:49:40.092Z,-2.40
2022-12-15T01:52:09.498Z,-2.50
2022-12-15T01:54:43.416Z,-2.50
2022-12-15T01:57:16.143Z,-2.50
2022-12-15T01:59:48.829Z,-2.50
2022-12-15T02:02:16.908Z,-2.60
2022-12-15T02:04:45.761Z,-2.60
2022-12-15T02:07:14.656Z,-2.50
2022-12-15T02:09:43.876Z,-2.50
2022-12-15T02:12:48.412Z,-2.50
2022-12-15T02:15:26.686Z,-2.60
2022-12-15T02:18:15.273Z,-2.60
2022-12-15T02:21:02.990Z,-2.60
2022-12-15T02:23:33.300Z,-2.60
2022-12-15T02:26:25.349Z,-2.60
2022-12-15T02:29:23.261Z,-2.60
2022-12-15T02:32:00.877Z,-2.70
2022-12-15T02:34:37.198Z,-2.70
2022-12-15T02:37:22.678Z,-2.80
2022-12-15T02:59:55.468Z,-3.20
2022-12-15T03:02:26.656Z,-3.20
2022-12-15T03:04:53.958Z,-3.30
2022-12-15T03:07:23.694Z,-3.30
2022-12-15T03:09:50.687Z,-3.30
2022-12-15T03:12:17.428Z,-3.40
2022-12-15T03:14:44.304Z,-3.40
2022-12-15T03:17:11.127Z,-3.50
2022-12-15T03:19:37.984Z,-3.50
2022-12-15T03:22:05.238Z,-3.50
2022-12-15T03:24:32.302Z,-3.60
2022-12-15T03:26:59.157Z,-3.60
2022-12-15T03:29:26.272Z,-3.50
2022-12-15T03:31:53.144Z,-3.60
2022-12-15T03:34:19.975Z,-3.60
2022-12-15T03:36:47.365Z,-3.60
2022-12-15T03:39:14.302Z,-3.60
2022-12-15T03:41:41.747Z,-3.60
2022-12-15T03:44:08.637Z,-3.60
2022-12-15T03:46:35.578Z,-3.70
2022-12-15T03:49:02.525Z,-3.70
2022-12-15T03:51:29.438Z,-3.80
2022-12-15T03:53:56.227Z,-3.80
2022-12-15T03:56:23.055Z,-3.80
2022-12-15T03:58:50.002Z,-3.80
2022-12-15T04:01:30.331Z,-3.80
2022-12-15T04:04:00.885Z,-3.90
2022-12-15T04:06:29.131Z,-3.90
2022-12-15T04:08:56.238Z,-3.90
2022-12-15T04:11:23.567Z,-3.90
2022-12-15T04:13:50.454Z,-3.80
2022-12-15T04:16:20.178Z,-3.80
2022-12-15T04:19:08.000Z,-3.80
2022-12-15T04:21:34.895Z,-3.80
2022-12-15T04:24:20.328Z,-3.80
2022-12-15T04:27:05.906Z,-3.70
2022-12-15T04:29:51.419Z,-3.70
2022-12-15T04:32:37.298Z,-3.70
2022-12-15T04:35:23.029Z,-3.70
2022-12-15T04:38:08.295Z,-3.80
2022-12-15T04:40:53.867Z,-3.80
2022-12-15T04:43:39.436Z,-3.80
2022-12-15T04:46:25.262Z,-3.70
2022-12-15T04:49:10.890Z,-3.80
2022-12-15T04:51:57.140Z,-3.70
2022-12-15T04:54:44.299Z,-3.70
2022-12-15T04:57:31.839Z,-3.60
2022-12-15T05:00:23.375Z,-3.60
2022-12-15T05:03:11.328Z,-3.60
2022-12-15T05:06:00.639Z,-3.60
2022-12-15T05:08:50.805Z,-3.60
2022-12-15T05:11:44.364Z,-3.60
2022-12-15T05:14:33.152Z,-3.70
2022-12-15T05:17:21.739Z,-3.60
2022-12-15T05:20:11.368Z,-3.70
2022-12-15T05:22:56.693Z,-3.70
2022-12-15T05:25:46.932Z,-3.60
2022-12-15T05:28:34.533Z,-3.70
2022-12-15T05:31:26.228Z,-3.60
2022-12-15T05:34:04.480Z,-3.70
2022-12-15T05:36:37.920Z,-3.70
2022-12-15T05:39:05.187Z,-3.80
2022-12-15T05:41:32.216Z,-3.80
2022-12-15T05:43:59.409Z,-3.90
2022-12-15T05:46:26.413Z,-3.90
2022-12-15T05:48:59.745Z,-4.00
2022-12-15T05:51:26.723Z,-3.90
2022-12-15T05:53:54.661Z,-3.90
2022-12-15T05:56:21.706Z,-4.00
2022-12-15T05:58:55.456Z,-4.10
2022-12-15T06:01:23.644Z,-4.10
2022-12-15T06:03:51.242Z,-4.10
2022-12-15T06:06:21.677Z,-4.10
2022-12-15T06:08:52.619Z,-4.10
2022-12-15T06:11:20.661Z,-4.20
2022-12-15T06:13:48.255Z,-4.30
2022-12-15T06:16:21.379Z,-4.30
2022-12-15T06:18:52.891Z,-4.30
2022-12-15T06:21:33.159Z,-4.40
2022-12-15T06:24:06.421Z,-4.40
2022-12-15T06:26:36.571Z,-4.40
2022-12-15T06:29:06.980Z,-4.40
2022-12-15T06:31:37.807Z,-4.40
2022-12-15T06:34:08.155Z,-4.50
2022-12-15T06:36:36.419Z,-4.50
2022-12-15T06:39:11.007Z,-4.50
2022-12-15T06:41:38.919Z,-4.50
2022-12-15T06:44:06.266Z,-4.50
2022-12-15T06:46:39.820Z,-4.50
2022-12-15T06:49:08.361Z,-4.50
2022-12-15T06:51:36.490Z,-4.60
2022-12-15T06:54:03.671Z,-4.60
2022-12-15T06:56:39.032Z,-4.60
2022-12-15T06:59:07.553Z,-4.60
2022-12-15T07:01:34.882Z,-4.60
2022-12-15T07:04:07.578Z,-4.60
2022-12-15T07:06:39.095Z,-4.50
2022-12-15T07:09:12.602Z,-4.50
2022-12-15T07:11:40.647Z,-4.40
2022-12-15T07:14:07.725Z,-4.30
2022-12-15T07:16:34.964Z,-4.20
2022-12-15T07:19:04.083Z,-4.10
2022-12-15T07:21:32.771Z,-4.10
2022-12-15T07:24:01.179Z,-4.00
2022-12-15T07:26:28.917Z,-3.80
2022-12-15T07:28:56.633Z,-3.80
2022-12-15T07:31:26.045Z,-3.80
2022-12-15T07:33:59.755Z,-3.70
2022-12-15T07:36:27.881Z,-3.60
2022-12-15T07:39:03.946Z,-3.50
2022-12-15T07:41:32.129Z,-3.40
2022-12-15T07:43:59.870Z,-3.30
2022-12-15T07:46:31.647Z,-3.30
2022-12-15T07:49:00.510Z,-3.20
2022-12-15T07:51:27.854Z,-3.10
2022-12-15T07:53:55.077Z,-3.10
2022-12-15T07:56:22.260Z,-3.10
2022-12-15T07:58:54.224Z,-3.00
2022-12-15T08:01:21.552Z,-2.90
2022-12-15T08:03:51.150Z,-2.90
2022-12-15T08:06:22.998Z,-2.80
2022-12-15T08:08:51.434Z,-2.80
2022-12-15T08:11:21.138Z,-2.80
2022-12-15T08:14:03.616Z,-2.80
2022-12-15T08:16:36.825Z,-2.70
2022-12-15T08:19:05.539Z,-2.60
2022-12-15T08:21:33.697Z,-2.50
2022-12-15T08:24:03.554Z,-2.60
2022-12-15T08:26:31.422Z,-2.50
2022-12-15T08:31:53.298Z,-2.40
2022-12-15T08:34:22.616Z,-2.30
2022-12-15T08:36:49.581Z,-2.30
2022-12-15T08:39:16.732Z,-2.20
2022-12-15T08:41:43.977Z,-2.20
2022-12-15T08:44:11.231Z,-2.20
2022-12-15T08:46:41.120Z,-2.30
2022-12-15T08:49:10.236Z,-2.20
2022-12-15T08:51:37.681Z,-2.30
2022-12-15T08:54:05.108Z,-2.10
2022-12-15T08:56:32.244Z,-2.10
2022-12-15T08:59:01.995Z,-2.00
2022-12-15T09:01:32.177Z,-1.90
2022-12-15T09:04:00.188Z,-1.90
2022-12-15T09:06:30.692Z,-1.90
2022-12-15T09:08:59.968Z,-1.90
2022-12-15T09:11:27.894Z,-1.90
2022-12-15T09:13:55.254Z,-1.80
2022-12-15T09:16:22.802Z,-1.80
2022-12-15T09:18:55.872Z,-1.80
2022-12-15T09:21:29.042Z,-1.80
2022-12-15T09:24:00.613Z,-1.80
2022-12-15T09:26:35.310Z,-1.70
2022-12-15T09:29:02.563Z,-1.60
2022-12-15T09:31:37.033Z,-1.70
2022-12-15T09:34:04.928Z,-1.60
2022-12-15T09:36:33.187Z,-1.50
2022-12-15T09:39:08.203Z,-1.50
2022-12-15T09:41:36.441Z,-1.50
2022-12-15T09:44:18.029Z,-1.50
2022-12-15T09:47:05.681Z,-1.40
2022-12-15T09:49:50.758Z,-1.40
2022-12-15T09:52:32.418Z,-1.30
2022-12-15T09:55:05.661Z,-1.20
2022-12-15T09:58:14.352Z,-1.10
2022-12-15T10:00:55.157Z,-1.30
2022-12-15T10:03:47.739Z,-1.30
2022-12-15T10:06:40.180Z,-1.20
2022-12-15T10:09:33.387Z,-1.20
2022-12-15T10:12:13.832Z,-1.20
2022-12-15T10:15:06.197Z,-1.20
2022-12-15T10:17:45.630Z,-1.20
2022-12-15T10:20:22.498Z,-1.10
2022-12-15T10:22:53.881Z,-1.00
2022-12-15T10:25:29.787Z,-0.90
2022-12-15T10:28:16.076Z,-0.80
2022-12-15T10:31:00.600Z,-0.80
2022-12-15T10:33:36.717Z,-0.80
2022-12-15T10:36:11.135Z,-0.80
2022-12-15T10:38:43.575Z,-0.80
2022-12-15T10:41:17.842Z,-0.70
2022-12-15T10:43:47.755Z,-0.70
2022-12-15T10:46:25.110Z,-0.70
2022-12-15T10:49:22.339Z,-0.60
2022-12-15T10:51:59.544Z,-0.60
2022-12-15T10:54:43.721Z,-0.70
2022-12-15T10:57:28.158Z,-0.60
2022-12-15T11:00:28.651Z,-0.50
2022-12-15T11:02:56.316Z,-0.50
2022-12-15T11:05:24.151Z,-0.50
2022-12-15T11:08:12.890Z,-0.50
2022-12-15T11:11:12.434Z,-0.40
2022-12-15T11:13:40.459Z,-0.40
2022-12-15T11:16:25.932Z,-0.50
2022-12-15T11:19:06.017Z,-0.40
2022-12-15T11:21:44.500Z,-0.30
2022-12-15T11:24:44.865Z,-0.20
2022-12-15T11:27:35.989Z,0.00
2022-12-15T11:30:17.388Z,0.00
2022-12-15T11:33:04.810Z,0.10
2022-12-15T11:36:02.743Z,0.20
2022-12-15T11:38:37.932Z,0.20
2022-12-15T11:41:28.485Z,0.30
2022-12-15T11:44:17.998Z,0.30
2022-12-15T11:47:10.403Z,0.40
2022-12-15T11:49:53.146Z,0.30
2022-12-15T11:52:43.053Z,0.30
2022-12-15T11:55:16.609Z,0.20
2022-12-15T11:58:17.671Z,0.10
2022-12-15T12:01:03.739Z,0.20
2022-12-15T12:03:48.360Z,0.30
2022-12-15T12:06:28.789Z,0.30
2022-12-15T12:09:13.347Z,0.30
2022-12-15T12:11:50.692Z,0.50
2022-12-15T12:14:17.713Z,0.60
2022-12-15T12:17:06.066Z,0.50
2022-12-15T12:19:50.712Z,0.60
2022-12-15T12:22:41.799Z,0.50
2022-12-15T12:25:31.857Z,0.50
2022-12-15T12:28:03.673Z,0.50
2022-12-15T12:30:41.021Z,0.60
2022-12-15T12:33:38.900Z,0.80
2022-12-15T12:36:14.539Z,0.90
2022-12-15T12:38:56.140Z,0.80
2022-12-15T12:41:47.146Z,0.80
2022-12-15T12:44:25.094Z,0.90
2022-12-15T12:46:55.736Z,0.90
2022-12-15T12:49:33.001Z,0.80
2022-12-15T12:52:08.750Z,0.70
2022-12-15T12:54:35.733Z,0.80
2022-12-15T12:57:11.891Z,0.70
2022-12-15T12:59:56.246Z,0.80
2022-12-15T13:02:26.726Z,0.80
2022-12-15T13:05:04.578Z,0.80
2022-12-15T13:07:37.843Z,0.80
2022-12-15T13:10:07.650Z,0.60
2022-12-15T13:12:54.328Z,0.40
2022-12-15T13:15:27.639Z,0.30
2022-12-15T13:18:17.102Z,0.20
2022-12-15T13:23:40.184Z,0.20
2022-12-15T13:26:07.112Z,0.10
2022-12-15T13:28:37.232Z,0.00
2022-12-15T13:31:20.915Z,0.00
2022-12-15T13:33:57.309Z,0.00
2022-12-15T13:36:43.658Z,0.00
2022-12-15T13:39:16.194Z,0.00
2022-12-15T13:42:23.851Z,-0.10
2022-12-15T13:44:51.424Z,-0.20
2022-12-15T13:47:30.966Z,-0.10
2022-12-15T13:50:15.199Z,0.30
2022-12-15T13:53:17.923Z,0.60
2022-12-15T13:59:50.399Z,1.00
2022-12-15T14:02:28.643Z,1.10
2022-12-15T14:05:17.393Z,1.50
2022-12-15T14:07:54.551Z,1.50
2022-12-15T14:10:25.455Z,1.20
2022-12-15T14:12:55.484Z,1.30
2022-12-15T14:15:30.074Z,1.00
2022-12-15T14:17:57.855Z,0.80
2022-12-15T14:20:38.616Z,0.70
2022-12-15T14:23:48.650Z,0.40
2022-12-15T14:26:30.994Z,0.10
2022-12-15T14:29:03.097Z,-0.20
2022-12-15T14:31:31.043Z,-0.30
2022-12-15T14:34:06.279Z,-0.40
2022-12-15T14:36:33.913Z,-0.40
2022-12-15T14:39:04.776Z,-0.50
2022-12-15T14:41:38.527Z,-0.60
2022-12-15T14:44:31.943Z,-0.60
2022-12-15T14:47:00.292Z,-0.70
2022-12-15T14:49:48.394Z,-0.80
2022-12-15T14:52:43.680Z,-0.90
2022-12-15T14:55:37.064Z,-1.00
2022-12-15T14:58:39.973Z,-1.10
2022-12-15T15:01:41.973Z,-1.10
2022-12-15T15:03:09.451Z,0.20
2022-12-15T15:04:30.539Z,-1.10
2022-12-15T15:06:59.727Z,-1.20
2022-12-15T15:09:32.524Z,-1.20
2022-12-15T15:12:08.817Z,-1.20
2022-12-15T15:14:47.326Z,-1.30
2022-12-15T15:17:24.886Z,-1.30
2022-12-15T15:19:52.113Z,-1.30
2022-12-15T15:22:41.194Z,-1.30
2022-12-15T15:25:41.122Z,-1.40
2022-12-15T15:28:20.308Z,-1.50
2022-12-15T15:30:58.047Z,-1.50
2022-12-15T15:33:26.300Z,-1.50
2022-12-15T15:35:58.265Z,-1.60
2022-12-15T15:38:29.467Z,-1.70
2022-12-15T15:41:00.350Z,-1.80
2022-12-15T15:43:28.672Z,-1.90
2022-12-15T15:46:02.854Z,-2.00
2022-12-15T15:48:44.935Z,-2.00
2022-12-15T15:51:12.390Z,-2.10
2022-12-15T15:53:39.551Z,-2.20
2022-12-15T15:56:10.428Z,-2.10
2022-12-15T15:58:37.468Z,-2.10
2022-12-15T16:01:09.686Z,-2.20
2022-12-15T16:03:40.257Z,-2.20
2022-12-15T16:06:21.873Z,-2.20
2022-12-15T16:08:54.001Z,-2.30
2022-12-15T16:11:27.767Z,-2.30
2022-12-15T16:13:57.034Z,-2.30
2022-12-15T16:16:30.369Z,-2.30
2022-12-15T16:18:57.250Z,-2.30
2022-12-15T16:21:27.275Z,-2.30
2022-12-15T16:23:56.583Z,-2.40
2022-12-15T16:26:30.159Z,-2.40
2022-12-15T16:28:57.310Z,-2.50
2022-12-15T16:31:40.890Z,-2.50
2022-12-15T16:34:08.398Z,-2.60
2022-12-15T16:36:35.485Z,-2.60
2022-12-15T16:39:02.901Z,-2.60
2022-12-15T16:41:29.736Z,-2.60
2022-12-15T16:43:56.526Z,-2.60
2022-12-15T16:46:23.450Z,-2.70
2022-12-15T16:48:51.899Z,-2.70
2022-12-15T16:51:37.099Z,-2.70
2022-12-15T16:54:04.419Z,-2.70
2022-12-15T16:56:31.263Z,-2.70
2022-12-15T16:59:30.971Z,-2.60
2022-12-15T17:01:45.408Z,-2.70
2022-12-15T17:04:12.562Z,-2.80
2022-12-15T17:06:39.943Z,-2.80
2022-12-15T17:09:08.918Z,-2.90
2022-12-15T17:11:36.174Z,-2.90
2022-12-15T17:14:03.077Z,-2.90
2022-12-15T17:16:30.282Z,-3.00
2022-12-15T17:18:57.397Z,-3.00
2022-12-15T17:21:44.668Z,-3.00
2022-12-15T17:24:15.431Z,-3.00
2022-12-15T17:26:44.450Z,-3.00
2022-12-15T17:29:23.449Z,-3.10
2022-12-15T17:31:50.564Z,-3.10
2022-12-15T17:34:32.858Z,-3.10
2022-12-15T17:37:02.934Z,-3.00
2022-12-15T17:39:30.855Z,-3.10
2022-12-15T17:42:01.128Z,-3.10
2022-12-15T17:44:36.763Z,-3.20
2022-12-15T17:47:06.640Z,-3.20
2022-12-15T17:49:36.346Z,-3.20
2022-12-15T17:52:16.777Z,-3.20
2022-12-15T17:54:43.870Z,-3.30
2022-12-15T17:57:12.531Z,-3.30
2022-12-15T17:59:39.521Z,-3.30
2022-12-15T18:02:06.886Z,-3.30
2022-12-15T18:04:33.732Z,-3.30
2022-12-15T18:07:02.337Z,-3.30
2022-12-15T18:09:30.939Z,-3.30
2022-12-15T18:11:57.910Z,-3.40
2022-12-15T18:14:24.979Z,-3.40
2022-12-15T18:16:51.854Z,-3.30
2022-12-15T18:19:18.805Z,-3.30
2022-12-15T18:21:45.604Z,-3.40
2022-12-15T18:24:17.383Z,-3.40
2022-12-15T18:26:45.246Z,-3.40
2022-12-15T18:29:14.486Z,-3.50
2022-12-15T18:31:42.067Z,-3.40
2022-12-15T18:34:15.053Z,-3.50
2022-12-15T18:36:43.172Z,-3.40
2022-12-15T18:39:23.620Z,-3.50
2022-12-15T18:41:53.150Z,-3.50
2022-12-15T18:44:28.816Z,-3.60
2022-12-15T18:46:55.839Z,-3.60
2022-12-15T18:49:23.428Z,-3.70
2022-12-15T18:51:50.562Z,-3.70
2022-12-15T18:54:20.304Z,-3.80
2022-12-15T18:56:47.135Z,-3.80
2022-12-15T18:59:16.369Z,-3.90
2022-12-15T19:01:45.768Z,-3.90
2022-12-15T19:04:13.290Z,-3.90
2022-12-15T19:06:41.179Z,-3.90
2022-12-15T19:09:15.654Z,-4.00
2022-12-15T19:12:03.459Z,-4.00
2022-12-15T19:14:43.023Z,-4.00
2022-12-15T19:17:34.452Z,-4.00
2022-12-15T19:20:20.348Z,-4.00
2022-12-15T19:22:48.691Z,-4.00
2022-12-15T19:25:25.413Z,-4.00
2022-12-15T19:27:58.715Z,-4.10
2022-12-15T19:30:37.059Z,-4.10
2022-12-15T19:33:08.578Z,-4.10
2022-12-15T19:35:36.791Z,-4.10
2022-12-15T19:38:04.358Z,-4.00
2022-12-15T19:40:33.754Z,-4.10
2022-12-15T19:43:02.169Z,-4.10
2022-12-15T19:45:31.250Z,-4.10
2022-12-15T19:47:58.628Z,-4.10
2022-12-15T19:50:33.486Z,-4.10
2022-12-15T19:53:02.123Z,-4.10
2022-12-15T19:55:32.731Z,-4.10
2022-12-15T19:58:00.813Z,-4.10
2022-12-15T20:00:28.133Z,-4.10
2022-12-15T20:02:55.747Z,-4.10
2022-12-15T20:05:24.305Z,-4.10
2022-12-15T20:07:53.555Z,-4.10
2022-12-15T20:10:27.870Z,-4.10
2022-12-15T20:12:59.702Z,-4.10
2022-12-15T20:15:26.788Z,-4.20
2022-12-15T20:17:56.708Z,-4.30
2022-12-15T20:20:25.843Z,-4.20
2022-12-15T20:22:56.225Z,-4.20
2022-12-15T20:25:33.459Z,-4.20
2022-12-15T20:28:01.056Z,-4.30
2022-12-15T20:30:35.453Z,-4.20
2022-12-15T20:33:04.315Z,-4.40
2022-12-15T20:35:34.611Z,-4.40
2022-12-15T20:38:13.457Z,-4.40
2022-12-15T20:40:40.350Z,-4.40
2022-12-15T20:43:16.266Z,-4.40
2022-12-15T20:45:44.735Z,-4.40
2022-12-15T20:48:15.651Z,-4.40
2022-12-15T20:50:48.641Z,-4.40
2022-12-15T20:53:26.414Z,-4.30
2022-12-15T20:55:54.905Z,-4.40
2022-12-15T20:58:21.920Z,-4.40
2022-12-15T21:00:49.979Z,-4.40
2022-12-15T21:03:27.455Z,-4.30
2022-12-15T21:05:56.536Z,-4.40
2022-12-15T21:08:29.865Z,-4.40
2022-12-15T21:11:01.568Z,-4.40
2022-12-15T21:13:33.306Z,-4.40
2022-12-15T21:16:00.645Z,-4.40
2022-12-15T21:21:31.688Z,-4.30
2022-12-15T21:24:00.298Z,-4.30
2022-12-15T21:26:27.624Z,-4.30
2022-12-15T21:28:59.383Z,-4.30
2022-12-15T21:31:26.464Z,-4.40
2022-12-15T21:33:53.468Z,-4.30
2022-12-15T21:36:22.438Z,-4.30
2022-12-15T21:38:51.968Z,-4.30
2022-12-15T21:41:20.758Z,-4.40
2022-12-15T21:43:48.164Z,-4.40
2022-12-15T21:46:17.496Z,-4.40
2022-12-15T21:49:03.703Z,-4.30
2022-12-15T21:51:34.990Z,-4.30
2022-12-15T21:54:02.501Z,-4.30
2022-12-15T21:56:29.672Z,-4.40
2022-12-15T21:58:57.221Z,-4.40
2022-12-15T22:01:28.593Z,-4.30
2022-12-15T22:03:57.980Z,-4.40
2022-12-15T22:06:27.643Z,-4.40
2022-12-15T22:09:01.156Z,-4.40
2022-12-15T22:11:31.705Z,-4.40
2022-12-15T22:14:03.212Z,-4.40
2022-12-15T22:16:30.031Z,-4.40
2022-12-15T22:18:58.471Z,-4.40
2022-12-15T22:21:25.802Z,-4.40
2022-12-15T22:23:52.717Z,-4.50
2022-12-15T22:26:31.096Z,-4.50
2022-12-15T22:29:01.276Z,-4.50
2022-12-15T22:31:29.066Z,-4.60
2022-12-15T22:33:55.937Z,-4.60
2022-12-15T22:36:22.712Z,-4.60
2022-12-15T22:38:49.721Z,-4.60
2022-12-15T22:41:24.004Z,-4.60
2022-12-15T22:43:54.033Z,-4.60
2022-12-15T22:46:24.332Z,-4.60
2022-12-15T22:48:54.786Z,-4.60
2022-12-15T22:51:21.945Z,-4.70
2022-12-15T22:53:48.869Z,-4.60
2022-12-15T22:56:26.279Z,-4.60
2022-12-15T22:59:02.670Z,-4.70
2022-12-15T23:01:29.988Z,-4.70
2022-12-15T23:03:57.083Z,-4.80
2022-12-15T23:06:26.376Z,-4.80
2022-12-15T23:08:56.004Z,-4.80
2022-12-15T23:11:39.412Z,-4.90
2022-12-15T23:14:09.237Z,-4.90
2022-12-15T23:16:37.181Z,-4.80
2022-12-15T23:19:05.340Z,-4.90
2022-12-15T23:21:32.458Z,-4.90
2022-12-15T23:23:59.698Z,-4.90
2022-12-15T23:26:26.947Z,-5.00
2022-12-15T23:28:55.191Z,-5.00
2022-12-15T23:31:22.760Z,-5.00
2022-12-15T23:33:52.172Z,-5.00
2022-12-15T23:36:19.236Z,-5.00
2022-12-15T23:38:46.408Z,-5.00
2022-12-15T23:41:18.022Z,-5.00
2022-12-15T23:43:45.214Z,-5.10
2022-12-15T23:46:12.183Z,-5.10
2022-12-15T23:48:42.046Z,-5.10
2022-12-15T23:51:11.837Z,-5.10
2022-12-15T23:53:39.253Z,-5.10
2022-12-15T23:56:12.485Z,-5.10
2022-12-15T23:58:40.558Z,-5.10
